createdAt,value
2023-01-27T08:42:00.625Z,27.80
2023-01-27T08:44:31.629Z,24.88
2023-01-27T08:46:58.555Z,22.98
2023-01-27T08:49:25.449Z,20.92
2023-01-27T08:51:52.380Z,17.77
2023-01-27T08:54:19.207Z,16.73
2023-01-27T08:56:46.129Z,17.23
2023-01-27T08:59:14.559Z,16.77
2023-01-27T09:01:41.948Z,15.80
2023-01-27T09:04:08.873Z,10.70
2023-01-27T09:06:35.728Z,12.80
2023-01-27T09:09:12.409Z,15.13
2023-01-27T09:11:45.054Z,12.82
2023-01-27T09:14:12.554Z,10.55
2023-01-27T09:16:39.705Z,16.75
2023-01-27T09:19:06.506Z,16.33
2023-01-27T09:21:33.391Z,12.52
2023-01-27T09:24:00.256Z,15.02
2023-01-27T09:26:27.258Z,6.82
2023-01-27T09:28:54.071Z,13.85
2023-01-27T09:31:20.945Z,11.80
2023-01-27T09:33:47.872Z,11.18
2023-01-27T09:36:18.961Z,12.85
2023-01-27T09:38:50.994Z,11.02
2023-01-27T09:41:50.356Z,11.90
2023-01-27T09:44:42.859Z,11.30
2023-01-27T09:47:24.816Z,12.50
2023-01-27T09:50:29.300Z,12.65
2023-01-27T09:53:20.008Z,11.77
2023-01-27T09:56:12.338Z,10.52
2023-01-27T09:59:05.080Z,13.38
2023-01-27T10:02:02.025Z,12.23
2023-01-27T10:04:48.387Z,11.57
2023-01-27T10:07:43.873Z,12.88
2023-01-27T10:10:24.566Z,10.90
2023-01-27T10:13:03.456Z,14.05
2023-01-27T10:15:37.218Z,9.35
2023-01-27T10:18:17.836Z,11.75
2023-01-27T10:21:00.983Z,4.88
2023-01-27T10:24:01.055Z,10.30
2023-01-27T10:27:01.525Z,10.65
2023-01-27T10:29:36.459Z,8.63
2023-01-27T10:32:31.103Z,7.95
2023-01-27T10:35:17.248Z,6.65
2023-01-27T10:38:13.870Z,12.10
2023-01-27T10:40:58.553Z,9.80
2023-01-27T10:43:50.100Z,11.15
2023-01-27T10:46:51.417Z,11.85
2023-01-27T10:49:36.499Z,10.38
2023-01-27T10:52:18.433Z,10.52
2023-01-27T10:54:58.999Z,11.52
2023-01-27T10:57:34.894Z,10.25
2023-01-27T11:01:18.182Z,11.70
2023-01-27T11:03:43.790Z,10.07
2023-01-27T11:06:16.337Z,14.90
2023-01-27T11:08:47.831Z,10.40
2023-01-27T11:11:40.412Z,11.55
2023-01-27T11:14:32.544Z,12.75
2023-01-27T11:20:00.264Z,10.82
2023-01-27T11:22:35.350Z,13.55
2023-01-27T11:25:05.201Z,13.00
2023-01-27T11:27:48.719Z,13.38
2023-01-27T11:30:25.468Z,13.50
2023-01-27T11:33:25.521Z,13.18
2023-01-27T11:35:53.936Z,10.10
2023-01-27T11:38:23.061Z,12.57
2023-01-27T11:40:52.604Z,15.23
2023-01-27T11:43:25.511Z,11.18
2023-01-27T11:46:05.778Z,13.30
2023-01-27T11:48:41.169Z,13.18
2023-01-27T11:51:21.519Z,8.93
2023-01-27T11:53:55.647Z,10.27
2023-01-27T11:56:24.383Z,11.45
2023-01-27T11:59:06.289Z,6.70
2023-01-27T12:01:48.267Z,11.13
2023-01-27T12:04:57.720Z,10.45
2023-01-27T12:07:39.700Z,9.05
2023-01-27T12:10:37.994Z,12.05
2023-01-27T12:13:25.483Z,12.05
2023-01-27T12:18:25.733Z,9.05
2023-01-27T12:21:04.536Z,8.90
2023-01-27T12:23:37.983Z,13.68
2023-01-27T12:26:07.810Z,12.63
2023-01-27T12:28:49.508Z,13.02
2023-01-27T12:31:31.602Z,15.27
2023-01-27T12:34:03.799Z,9.18
2023-01-27T12:36:39.026Z,12.23
2023-01-27T12:39:07.681Z,8.63
2023-01-27T12:41:37.868Z,9.73
2023-01-27T12:44:16.336Z,8.88
2023-01-27T12:46:59.823Z,7.30
2023-01-27T12:49:35.772Z,6.68
2023-01-27T12:52:05.175Z,11.55
2023-01-27T12:54:32.906Z,14.52
2023-01-27T12:57:06.826Z,14.73
2023-01-27T12:59:35.689Z,11.88
2023-01-27T13:02:31.049Z,9.45
2023-01-27T13:05:01.154Z,11.73
2023-01-27T13:08:01.826Z,9.52
2023-01-27T13:10:29.063Z,9.65
2023-01-27T13:12:58.882Z,13.07
2023-01-27T13:15:31.820Z,6.68
2023-01-27T13:18:02.748Z,12.20
2023-01-27T13:20:43.599Z,9.88
2023-01-27T13:23:27.454Z,10.85
2023-01-27T13:26:15.430Z,8.52
2023-01-27T13:29:23.598Z,10.45
2023-01-27T13:31:59.486Z,9.27
2023-01-27T13:34:34.735Z,8.75
2023-01-27T13:37:14.742Z,10.32
2023-01-27T13:40:04.084Z,10.77
2023-01-27T13:42:51.846Z,9.02
2023-01-27T13:45:29.081Z,9.40
2023-01-27T13:48:01.915Z,8.05
2023-01-27T13:50:44.597Z,7.93
2023-01-27T13:53:17.653Z,8.18
2023-01-27T13:56:09.737Z,11.15
2023-01-27T13:59:00.281Z,12.13
2023-01-27T14:01:43.661Z,7.38
2023-01-27T14:04:13.501Z,5.18
2023-01-27T14:07:14.081Z,5.45
2023-01-27T14:10:02.006Z,10.10
2023-01-27T14:12:42.797Z,3.95
2023-01-27T14:15:15.794Z,12.68
2023-01-27T14:17:48.666Z,7.45
2023-01-27T14:20:24.893Z,10.70
2023-01-27T14:23:17.763Z,4.45
2023-01-27T14:25:55.837Z,10.05
2023-01-27T14:28:46.369Z,11.27
2023-01-27T14:31:19.245Z,5.53
2023-01-27T14:34:16.002Z,6.43
2023-01-27T14:36:55.476Z,5.22
2023-01-27T14:39:41.149Z,5.88
2023-01-27T14:42:27.780Z,10.63
2023-01-27T14:45:07.315Z,6.43
2023-01-27T14:47:53.403Z,2.60
2023-01-27T14:50:22.951Z,8.32
2023-01-27T14:53:07.752Z,7.82
2023-01-27T14:55:45.083Z,6.18
2023-01-27T14:58:23.834Z,6.25
2023-01-27T15:01:05.555Z,7.60
2023-01-27T15:04:05.232Z,1.73
2023-01-27T15:06:58.411Z,5.18
2023-01-27T15:09:41.721Z,7.50
2023-01-27T15:12:33.194Z,7.20
2023-01-27T15:15:24.887Z,5.22
2023-01-27T15:18:19.534Z,9.27
2023-01-27T15:21:03.279Z,6.20
2023-01-27T15:23:50.050Z,6.50
2023-01-27T15:26:22.735Z,4.65
2023-01-27T15:28:49.884Z,5.93
2023-01-27T15:31:17.096Z,5.60
2023-01-27T15:33:56.197Z,5.13
2023-01-27T15:36:32.007Z,4.40
2023-01-27T15:39:21.998Z,9.27
2023-01-27T15:42:02.079Z,2.83
2023-01-27T15:44:31.746Z,6.80
2023-01-27T15:47:21.860Z,5.43
2023-01-27T15:50:02.700Z,9.05
2023-01-27T15:52:33.567Z,6.50
2023-01-27T15:55:04.983Z,6.55
2023-01-27T15:57:40.819Z,10.02
2023-01-27T16:00:22.488Z,4.10
2023-01-27T16:02:53.485Z,7.55
2023-01-27T16:05:52.146Z,4.53
2023-01-27T16:08:20.144Z,6.90
2023-01-27T16:10:49.757Z,8.38
2023-01-27T16:13:29.414Z,5.38
2023-01-27T16:16:18.056Z,7.78
2023-01-27T16:18:50.979Z,5.32
2023-01-27T16:21:53.616Z,5.70
2023-01-27T16:24:42.646Z,6.70
2023-01-27T16:27:47.472Z,6.03
2023-01-27T16:30:22.831Z,7.15
2023-01-27T16:33:06.805Z,4.13
2023-01-27T16:35:56.014Z,9.05
2023-01-27T16:38:33.175Z,6.38
2023-01-27T16:41:18.548Z,5.35
2023-01-27T16:43:55.396Z,4.47
2023-01-27T16:47:05.128Z,7.35
2023-01-27T16:49:41.471Z,7.22
2023-01-27T16:52:29.429Z,9.20
2023-01-27T16:55:11.080Z,8.50
2023-01-27T16:57:45.310Z,8.95
